sensor_id;sensor_type;location;lat;lon;timestamp;P1;durP1;ratioP1;P2;durP2;ratioP2
23370;SDS011;11858;51.056;3.712;2023-09-19T00:00:33;6.75;;;6.45;;
23370;SDS011;11858;51.056;3.712;2023-09-19T00:03:01;6.90;;;6.60;;
23370;SDS011;11858;51.056;3.712;2023-09-19T00:05:27;7.85;;;7.25;;
23370;SDS011;11858;51.056;3.712;2023-09-19T00:07:54;9.73;;;7.43;;
23370;SDS011;11858;51.056;3.712;2023-09-19T00:10:24;16.40;;;7.70;;
23370;SDS011;11858;51.056;3.712;2023-09-19T00:12:56;6.63;;;6.03;;
23370;SDS011;11858;51.056;3.712;2023-09-19T00:15:24;7.30;;;6.53;;
23370;SDS011;11858;51.056;3.712;2023-09-19T00:17:51;6.43;;;6.03;;
23370;SDS011;11858;51.056;3.712;2023-09-19T00:20:23;7.63;;;6.43;;
23370;SDS011;11858;51.056;3.712;2023-09-19T00:22:49;6.72;;;6.20;;
23370;SDS011;11858;51.056;3.712;2023-09-19T00:25:17;9.00;;;6.88;;
23370;SDS011;11858;51.056;3.712;2023-09-19T00:27:42;9.25;;;6.53;;
23370;SDS011;11858;51.056;3.712;2023-09-19T00:30:10;9.77;;;6.35;;
23370;SDS011;11858;51.056;3.712;2023-09-19T00:32:49;5.53;;;5.22;;
23370;SDS011;11858;51.056;3.712;2023-09-19T00:35:19;8.05;;;5.03;;
23370;SDS011;11858;51.056;3.712;2023-09-19T00:37:46;9.55;;;5.25;;
23370;SDS011;11858;51.056;3.712;2023-09-19T00:40:11;13.50;;;7.13;;
23370;SDS011;11858;51.056;3.712;2023-09-19T00:42:38;8.93;;;5.88;;
23370;SDS011;11858;51.056;3.712;2023-09-19T00:45:05;5.40;;;5.10;;
23370;SDS011;11858;51.056;3.712;2023-09-19T00:47:32;6.50;;;4.97;;
23370;SDS011;11858;51.056;3.712;2023-09-19T00:49:57;5.13;;;4.60;;
23370;SDS011;11858;51.056;3.712;2023-09-19T00:52:23;8.70;;;5.43;;
23370;SDS011;11858;51.056;3.712;2023-09-19T00:54:50;5.50;;;5.05;;
23370;SDS011;11858;51.056;3.712;2023-09-19T00:57:17;12.85;;;4.60;;
23370;SDS011;11858;51.056;3.712;2023-09-19T00:59:44;9.52;;;5.43;;
23370;SDS011;11858;51.056;3.712;2023-09-19T01:02:14;6.28;;;5.35;;
23370;SDS011;11858;51.056;3.712;2023-09-19T01:04:41;4.13;;;3.92;;
23370;SDS011;11858;51.056;3.712;2023-09-19T01:07:11;4.65;;;4.30;;
23370;SDS011;11858;51.056;3.712;2023-09-19T01:09:36;9.82;;;4.95;;
23370;SDS011;11858;51.056;3.712;2023-09-19T01:12:04;3.95;;;3.75;;
23370;SDS011;11858;51.056;3.712;2023-09-19T01:14:42;4.57;;;4.28;;
23370;SDS011;11858;51.056;3.712;2023-09-19T01:17:29;6.93;;;5.10;;
23370;SDS011;11858;51.056;3.712;2023-09-19T01:23:01;3.40;;;3.30;;
23370;SDS011;11858;51.056;3.712;2023-09-19T01:31:06;4.32;;;3.92;;
23370;SDS011;11858;51.056;3.712;2023-09-19T01:36:22;5.63;;;3.70;;
23370;SDS011;11858;51.056;3.712;2023-09-19T01:38:49;4.18;;;3.92;;
23370;SDS011;11858;51.056;3.712;2023-09-19T01:41:17;15.70;;;4.20;;
23370;SDS011;11858;51.056;3.712;2023-09-19T01:43:50;11.48;;;4.70;;
23370;SDS011;11858;51.056;3.712;2023-09-19T01:46:21;7.47;;;3.45;;
23370;SDS011;11858;51.056;3.712;2023-09-19T01:51:37;7.63;;;4.40;;
23370;SDS011;11858;51.056;3.712;2023-09-19T01:54:12;3.58;;;3.28;;
23370;SDS011;11858;51.056;3.712;2023-09-19T01:59:13;3.28;;;3.03;;
23370;SDS011;11858;51.056;3.712;2023-09-19T02:01:46;6.18;;;2.70;;
23370;SDS011;11858;51.056;3.712;2023-09-19T02:04:14;9.10;;;3.67;;
23370;SDS011;11858;51.056;3.712;2023-09-19T02:06:40;14.70;;;4.53;;
23370;SDS011;11858;51.056;3.712;2023-09-19T02:09:07;10.18;;;4.00;;
23370;SDS011;11858;51.056;3.712;2023-09-19T02:11:34;10.27;;;6.25;;
23370;SDS011;11858;51.056;3.712;2023-09-19T02:14:00;3.13;;;3.03;;
23370;SDS011;11858;51.056;3.712;2023-09-19T02:16:27;8.93;;;3.85;;
23370;SDS011;11858;51.056;3.712;2023-09-19T02:18:53;8.98;;;4.32;;
23370;SDS011;11858;51.056;3.712;2023-09-19T02:21:19;6.53;;;3.88;;
23370;SDS011;11858;51.056;3.712;2023-09-19T02:23:48;13.00;;;3.92;;
23370;SDS011;11858;51.056;3.712;2023-09-19T02:26:13;4.60;;;3.25;;
23370;SDS011;11858;51.056;3.712;2023-09-19T02:28:39;3.40;;;3.17;;
23370;SDS011;11858;51.056;3.712;2023-09-19T02:31:05;3.80;;;3.00;;
23370;SDS011;11858;51.056;3.712;2023-09-19T02:33:31;2.88;;;2.78;;
23370;SDS011;11858;51.056;3.712;2023-09-19T02:35:57;4.38;;;3.58;;
23370;SDS011;11858;51.056;3.712;2023-09-19T02:38:24;10.07;;;3.33;;
23370;SDS011;11858;51.056;3.712;2023-09-19T02:40:51;4.13;;;3.72;;
23370;SDS011;11858;51.056;3.712;2023-09-19T02:43:17;2.60;;;2.50;;
23370;SDS011;11858;51.056;3.712;2023-09-19T02:45:44;11.80;;;3.95;;
23370;SDS011;11858;51.056;3.712;2023-09-19T02:48:11;5.65;;;3.17;;
23370;SDS011;11858;51.056;3.712;2023-09-19T02:50:37;3.15;;;2.50;;
23370;SDS011;11858;51.056;3.712;2023-09-19T02:53:05;2.72;;;2.55;;
23370;SDS011;11858;51.056;3.712;2023-09-19T02:55:32;11.05;;;3.67;;
23370;SDS011;11858;51.056;3.712;2023-09-19T02:57:57;4.93;;;2.83;;
23370;SDS011;11858;51.056;3.712;2023-09-19T03:00:23;6.15;;;2.75;;
23370;SDS011;11858;51.056;3.712;2023-09-19T03:02:53;3.47;;;2.58;;
23370;SDS011;11858;51.056;3.712;2023-09-19T03:05:20;2.20;;;2.10;;
23370;SDS011;11858;51.056;3.712;2023-09-19T03:07:48;2.10;;;2.00;;
23370;SDS011;11858;51.056;3.712;2023-09-19T03:10:15;6.63;;;2.60;;
23370;SDS011;11858;51.056;3.712;2023-09-19T03:12:42;4.30;;;2.47;;
23370;SDS011;11858;51.056;3.712;2023-09-19T03:15:08;4.28;;;2.20;;
23370;SDS011;11858;51.056;3.712;2023-09-19T03:17:34;1.98;;;1.88;;
23370;SDS011;11858;51.056;3.712;2023-09-19T03:20:01;6.68;;;1.80;;
23370;SDS011;11858;51.056;3.712;2023-09-19T03:22:27;5.35;;;2.10;;
23370;SDS011;11858;51.056;3.712;2023-09-19T03:24:53;5.70;;;2.10;;
23370;SDS011;11858;51.056;3.712;2023-09-19T03:27:19;5.47;;;2.00;;
23370;SDS011;11858;51.056;3.712;2023-09-19T03:29:45;0.40;;;0.40;;
23370;SDS011;11858;51.056;3.712;2023-09-19T03:32:11;9.30;;;1.08;;
23370;SDS011;11858;51.056;3.712;2023-09-19T03:34:37;1.08;;;1.05;;
23370;SDS011;11858;51.056;3.712;2023-09-19T03:37:07;1.63;;;1.10;;
23370;SDS011;11858;51.056;3.712;2023-09-19T03:39:37;6.05;;;1.70;;
23370;SDS011;11858;51.056;3.712;2023-09-19T03:42:03;5.53;;;1.65;;
23370;SDS011;11858;51.056;3.712;2023-09-19T03:44:29;3.38;;;1.75;;
23370;SDS011;11858;51.056;3.712;2023-09-19T03:46:55;0.80;;;0.80;;
23370;SDS011;11858;51.056;3.712;2023-09-19T03:49:22;6.75;;;2.05;;
23370;SDS011;11858;51.056;3.712;2023-09-19T03:51:48;7.32;;;1.60;;
23370;SDS011;11858;51.056;3.712;2023-09-19T03:54:13;16.08;;;1.98;;
23370;SDS011;11858;51.056;3.712;2023-09-19T03:56:39;20.40;;;1.95;;
23370;SDS011;11858;51.056;3.712;2023-09-19T03:59:05;1.35;;;1.05;;
23370;SDS011;11858;51.056;3.712;2023-09-19T04:01:31;12.15;;;1.70;;
23370;SDS011;11858;51.056;3.712;2023-09-19T04:03:58;7.45;;;1.95;;
23370;SDS011;11858;51.056;3.712;2023-09-19T04:06:32;7.57;;;1.30;;
23370;SDS011;11858;51.056;3.712;2023-09-19T04:09:00;14.38;;;2.28;;
23370;SDS011;11858;51.056;3.712;2023-09-19T04:11:26;15.43;;;3.45;;
23370;SDS011;11858;51.056;3.712;2023-09-19T04:13:52;11.77;;;2.85;;
23370;SDS011;11858;51.056;3.712;2023-09-19T04:16:17;1.00;;;0.85;;
23370;SDS011;11858;51.056;3.712;2023-09-19T04:18:43;8.48;;;1.33;;
23370;SDS011;11858;51.056;3.712;2023-09-19T04:21:09;4.60;;;0.95;;
23370;SDS011;11858;51.056;3.712;2023-09-19T04:23:35;2.35;;;1.65;;
23370;SDS011;11858;51.056;3.712;2023-09-19T04:26:00;1.35;;;1.25;;
23370;SDS011;11858;51.056;3.712;2023-09-19T04:28:26;1.55;;;0.98;;
23370;SDS011;11858;51.056;3.712;2023-09-19T04:30:55;3.10;;;1.67;;
23370;SDS011;11858;51.056;3.712;2023-09-19T04:33:20;0.57;;;0.57;;
23370;SDS011;11858;51.056;3.712;2023-09-19T04:35:48;9.10;;;1.75;;
23370;SDS011;11858;51.056;3.712;2023-09-19T04:38:15;10.95;;;1.33;;
23370;SDS011;11858;51.056;3.712;2023-09-19T04:40:42;0.60;;;0.60;;
23370;SDS011;11858;51.056;3.712;2023-09-19T04:43:08;0.90;;;0.73;;
23370;SDS011;11858;51.056;3.712;2023-09-19T04:45:34;9.85;;;2.17;;
23370;SDS011;11858;51.056;3.712;2023-09-19T04:47:59;10.60;;;2.05;;
23370;SDS011;11858;51.056;3.712;2023-09-19T04:50:25;6.80;;;1.80;;
23370;SDS011;11858;51.056;3.712;2023-09-19T04:52:52;5.75;;;1.52;;
23370;SDS011;11858;51.056;3.712;2023-09-19T04:55:18;19.02;;;3.03;;
23370;SDS011;11858;51.056;3.712;2023-09-19T04:57:48;0.50;;;0.50;;
23370;SDS011;11858;51.056;3.712;2023-09-19T05:00:15;4.37;;;1.53;;
23370;SDS011;11858;51.056;3.712;2023-09-19T05:02:44;11.75;;;2.20;;
23370;SDS011;11858;51.056;3.712;2023-09-19T05:05:11;1.98;;;1.00;;
23370;SDS011;11858;51.056;3.712;2023-09-19T05:07:40;16.35;;;2.35;;
23370;SDS011;11858;51.056;3.712;2023-09-19T05:10:06;1.25;;;1.05;;
23370;SDS011;11858;51.056;3.712;2023-09-19T05:12:33;0.57;;;0.57;;
23370;SDS011;11858;51.056;3.712;2023-09-19T05:15:00;0.60;;;0.40;;
23370;SDS011;11858;51.056;3.712;2023-09-19T05:17:29;0.50;;;0.50;;
23370;SDS011;11858;51.056;3.712;2023-09-19T05:19:56;14.38;;;2.22;;
23370;SDS011;11858;51.056;3.712;2023-09-19T05:22:23;1.10;;;0.77;;
23370;SDS011;11858;51.056;3.712;2023-09-19T05:24:49;21.85;;;2.00;;
23370;SDS011;11858;51.056;3.712;2023-09-19T05:27:16;12.77;;;2.38;;
23370;SDS011;11858;51.056;3.712;2023-09-19T05:29:45;1.70;;;1.15;;
23370;SDS011;11858;51.056;3.712;2023-09-19T05:32:11;4.18;;;1.60;;
23370;SDS011;11858;51.056;3.712;2023-09-19T05:34:37;2.35;;;1.27;;
23370;SDS011;11858;51.056;3.712;2023-09-19T05:37:03;1.65;;;0.50;;
23370;SDS011;11858;51.056;3.712;2023-09-19T05:39:32;16.80;;;2.95;;
23370;SDS011;11858;51.056;3.712;2023-09-19T05:41:58;14.32;;;2.78;;
23370;SDS011;11858;51.056;3.712;2023-09-19T05:44:25;4.95;;;2.47;;
23370;SDS011;11858;51.056;3.712;2023-09-19T05:46:51;0.77;;;0.77;;
23370;SDS011;11858;51.056;3.712;2023-09-19T05:49:18;8.63;;;1.67;;
23370;SDS011;11858;51.056;3.712;2023-09-19T05:51:46;1.55;;;1.45;;
23370;SDS011;11858;51.056;3.712;2023-09-19T05:54:12;5.03;;;1.60;;
23370;SDS011;11858;51.056;3.712;2023-09-19T05:56:38;8.35;;;1.42;;
23370;SDS011;11858;51.056;3.712;2023-09-19T05:59:03;5.75;;;1.20;;
23370;SDS011;11858;51.056;3.712;2023-09-19T06:01:30;11.98;;;2.30;;
23370;SDS011;11858;51.056;3.712;2023-09-19T06:03:57;0.57;;;0.57;;
23370;SDS011;11858;51.056;3.712;2023-09-19T06:06:25;8.63;;;1.83;;
23370;SDS011;11858;51.056;3.712;2023-09-19T06:08:51;10.15;;;0.98;;
23370;SDS011;11858;51.056;3.712;2023-09-19T06:11:17;5.10;;;0.93;;
23370;SDS011;11858;51.056;3.712;2023-09-19T06:13:45;9.70;;;1.70;;
23370;SDS011;11858;51.056;3.712;2023-09-19T06:16:12;3.42;;;1.55;;
23370;SDS011;11858;51.056;3.712;2023-09-19T06:18:38;21.77;;;2.35;;
23370;SDS011;11858;51.056;3.712;2023-09-19T06:21:04;5.63;;;1.52;;
23370;SDS011;11858;51.056;3.712;2023-09-19T06:23:30;8.82;;;1.83;;
23370;SDS011;11858;51.056;3.712;2023-09-19T06:25:56;0.43;;;0.43;;
23370;SDS011;11858;51.056;3.712;2023-09-19T06:28:22;15.50;;;1.75;;
23370;SDS011;11858;51.056;3.712;2023-09-19T06:30:49;2.50;;;0.98;;
23370;SDS011;11858;51.056;3.712;2023-09-19T06:33:15;24.83;;;3.20;;
23370;SDS011;11858;51.056;3.712;2023-09-19T06:35:42;4.90;;;1.23;;
23370;SDS011;11858;51.056;3.712;2023-09-19T06:38:12;16.63;;;1.30;;
23370;SDS011;11858;51.056;3.712;2023-09-19T06:40:38;0.68;;;0.68;;
23370;SDS011;11858;51.056;3.712;2023-09-19T06:43:04;14.63;;;1.70;;
23370;SDS011;11858;51.056;3.712;2023-09-19T06:45:30;12.63;;;2.47;;
23370;SDS011;11858;51.056;3.712;2023-09-19T06:47:57;3.10;;;1.40;;
23370;SDS011;11858;51.056;3.712;2023-09-19T06:50:23;13.85;;;2.80;;
23370;SDS011;11858;51.056;3.712;2023-09-19T06:52:49;5.25;;;1.40;;
23370;SDS011;11858;51.056;3.712;2023-09-19T06:55:16;1.25;;;1.08;;
23370;SDS011;11858;51.056;3.712;2023-09-19T06:57:44;7.70;;;2.22;;
23370;SDS011;11858;51.056;3.712;2023-09-19T07:00:10;27.13;;;2.53;;
23370;SDS011;11858;51.056;3.712;2023-09-19T07:02:56;17.77;;;2.78;;
23370;SDS011;11858;51.056;3.712;2023-09-19T07:05:28;2.33;;;0.75;;
23370;SDS011;11858;51.056;3.712;2023-09-19T07:07:57;14.77;;;3.65;;
23370;SDS011;11858;51.056;3.712;2023-09-19T07:10:24;1.00;;;0.93;;
23370;SDS011;11858;51.056;3.712;2023-09-19T07:13:05;8.05;;;1.70;;
23370;SDS011;11858;51.056;3.712;2023-09-19T07:15:34;10.00;;;2.20;;
23370;SDS011;11858;51.056;3.712;2023-09-19T07:18:11;1.25;;;1.10;;
23370;SDS011;11858;51.056;3.712;2023-09-19T07:20:41;14.20;;;2.60;;
23370;SDS011;11858;51.056;3.712;2023-09-19T07:23:14;7.25;;;2.38;;
23370;SDS011;11858;51.056;3.712;2023-09-19T07:25:47;13.88;;;2.90;;
23370;SDS011;11858;51.056;3.712;2023-09-19T07:28:14;1.60;;;1.50;;
23370;SDS011;11858;51.056;3.712;2023-09-19T07:30:40;8.35;;;2.35;;
23370;SDS011;11858;51.056;3.712;2023-09-19T07:33:07;10.93;;;3.08;;
23370;SDS011;11858;51.056;3.712;2023-09-19T07:35:36;16.50;;;3.65;;
23370;SDS011;11858;51.056;3.712;2023-09-19T07:38:05;3.67;;;2.58;;
23370;SDS011;11858;51.056;3.712;2023-09-19T07:40:31;6.72;;;2.55;;
23370;SDS011;11858;51.056;3.712;2023-09-19T07:42:57;9.27;;;3.20;;
23370;SDS011;11858;51.056;3.712;2023-09-19T07:45:26;19.23;;;4.10;;
23370;SDS011;11858;51.056;3.712;2023-09-19T07:47:52;12.02;;;2.92;;
23370;SDS011;11858;51.056;3.712;2023-09-19T07:50:19;9.25;;;2.90;;
23370;SDS011;11858;51.056;3.712;2023-09-19T07:52:45;2.50;;;2.40;;
23370;SDS011;11858;51.056;3.712;2023-09-19T07:55:11;10.88;;;3.15;;
23370;SDS011;11858;51.056;3.712;2023-09-19T07:57:41;2.88;;;2.78;;
23370;SDS011;11858;51.056;3.712;2023-09-19T08:00:08;15.90;;;6.00;;
23370;SDS011;11858;51.056;3.712;2023-09-19T08:02:35;10.93;;;3.55;;
23370;SDS011;11858;51.056;3.712;2023-09-19T08:05:03;3.90;;;3.70;;
23370;SDS011;11858;51.056;3.712;2023-09-19T08:07:31;16.60;;;5.70;;
23370;SDS011;11858;51.056;3.712;2023-09-19T08:09:57;10.48;;;5.30;;
23370;SDS011;11858;51.056;3.712;2023-09-19T08:12:24;15.25;;;5.93;;
23370;SDS011;11858;51.056;3.712;2023-09-19T08:14:50;6.95;;;4.35;;
23370;SDS011;11858;51.056;3.712;2023-09-19T08:17:16;4.47;;;4.22;;
23370;SDS011;11858;51.056;3.712;2023-09-19T08:19:41;11.57;;;6.10;;
23370;SDS011;11858;51.056;3.712;2023-09-19T08:22:10;5.82;;;4.60;;
23370;SDS011;11858;51.056;3.712;2023-09-19T08:24:36;5.38;;;5.07;;
23370;SDS011;11858;51.056;3.712;2023-09-19T08:27:03;18.70;;;5.45;;
23370;SDS011;11858;51.056;3.712;2023-09-19T08:29:30;4.80;;;4.43;;
23370;SDS011;11858;51.056;3.712;2023-09-19T08:31:57;5.03;;;4.68;;
23370;SDS011;11858;51.056;3.712;2023-09-19T08:34:23;19.23;;;5.07;;
23370;SDS011;11858;51.056;3.712;2023-09-19T08:36:50;10.98;;;5.63;;
23370;SDS011;11858;51.056;3.712;2023-09-19T08:39:18;9.27;;;5.97;;
23370;SDS011;11858;51.056;3.712;2023-09-19T08:41:44;7.25;;;5.40;;
23370;SDS011;11858;51.056;3.712;2023-09-19T08:44:10;12.23;;;5.65;;
23370;SDS011;11858;51.056;3.712;2023-09-19T08:46:35;10.00;;;6.30;;
23370;SDS011;11858;51.056;3.712;2023-09-19T08:51:50;10.77;;;6.30;;
23370;SDS011;11858;51.056;3.712;2023-09-19T08:54:26;9.98;;;5.75;;
23370;SDS011;11858;51.056;3.712;2023-09-19T08:56:59;5.63;;;5.22;;
23370;SDS011;11858;51.056;3.712;2023-09-19T08:59:33;8.60;;;6.57;;
23370;SDS011;11858;51.056;3.712;2023-09-19T09:02:00;12.27;;;7.75;;
23370;SDS011;11858;51.056;3.712;2023-09-19T09:04:26;5.60;;;5.30;;
23370;SDS011;11858;51.056;3.712;2023-09-19T09:06:53;8.50;;;6.15;;
23370;SDS011;11858;51.056;3.712;2023-09-19T09:09:20;15.90;;;8.63;;
23370;SDS011;11858;51.056;3.712;2023-09-19T09:11:47;12.82;;;6.43;;
23370;SDS011;11858;51.056;3.712;2023-09-19T09:14:15;6.07;;;5.78;;
23370;SDS011;11858;51.056;3.712;2023-09-19T09:16:41;8.25;;;6.88;;
23370;SDS011;11858;51.056;3.712;2023-09-19T09:19:07;6.70;;;6.00;;
23370;SDS011;11858;51.056;3.712;2023-09-19T09:21:32;5.70;;;5.30;;
23370;SDS011;11858;51.056;3.712;2023-09-19T09:26:53;27.55;;;6.82;;
23370;SDS011;11858;51.056;3.712;2023-09-19T09:32:16;8.00;;;5.07;;
23370;SDS011;11858;51.056;3.712;2023-09-19T09:34:43;9.63;;;5.97;;
23370;SDS011;11858;51.056;3.712;2023-09-19T09:37:13;7.57;;;6.88;;
23370;SDS011;11858;51.056;3.712;2023-09-19T09:39:49;7.50;;;7.00;;
23370;SDS011;11858;51.056;3.712;2023-09-19T09:42:42;7.57;;;7.18;;
23370;SDS011;11858;51.056;3.712;2023-09-19T09:45:12;8.05;;;7.65;;
23370;SDS011;11858;51.056;3.712;2023-09-19T09:48:02;11.10;;;10.07;;
23370;SDS011;11858;51.056;3.712;2023-09-19T09:50:35;17.58;;;10.57;;
23370;SDS011;11858;51.056;3.712;2023-09-19T09:53:20;10.88;;;10.15;;
23370;SDS011;11858;51.056;3.712;2023-09-19T09:56:02;11.80;;;10.70;;
23370;SDS011;11858;51.056;3.712;2023-09-19T09:58:35;16.40;;;10.98;;
23370;SDS011;11858;51.056;3.712;2023-09-19T10:01:05;15.50;;;13.98;;
23370;SDS011;11858;51.056;3.712;2023-09-19T10:03:38;15.25;;;14.25;;
23370;SDS011;11858;51.056;3.712;2023-09-19T10:06:09;13.10;;;12.40;;
23370;SDS011;11858;51.056;3.712;2023-09-19T10:11:55;15.20;;;14.15;;
23370;SDS011;11858;51.056;3.712;2023-09-19T10:14:35;15.60;;;14.30;;
23370;SDS011;11858;51.056;3.712;2023-09-19T10:17:04;14.93;;;13.90;;
23370;SDS011;11858;51.056;3.712;2023-09-19T10:19:37;16.38;;;14.65;;
23370;SDS011;11858;51.056;3.712;2023-09-19T10:22:11;14.00;;;13.00;;
23370;SDS011;11858;51.056;3.712;2023-09-19T10:24:45;15.55;;;14.45;;
23370;SDS011;11858;51.056;3.712;2023-09-19T10:27:12;17.63;;;14.32;;
23370;SDS011;11858;51.056;3.712;2023-09-19T10:29:41;14.98;;;14.07;;
23370;SDS011;11858;51.056;3.712;2023-09-19T10:32:09;15.40;;;14.50;;
23370;SDS011;11858;51.056;3.712;2023-09-19T10:34:43;15.15;;;14.13;;
23370;SDS011;11858;51.056;3.712;2023-09-19T10:37:12;16.38;;;15.13;;
23370;SDS011;11858;51.056;3.712;2023-09-19T10:39:39;15.45;;;14.35;;
23370;SDS011;11858;51.056;3.712;2023-09-19T10:42:06;14.57;;;13.73;;
23370;SDS011;11858;51.056;3.712;2023-09-19T10:44:37;15.45;;;14.45;;
23370;SDS011;11858;51.056;3.712;2023-09-19T10:47:08;16.08;;;14.98;;
23370;SDS011;11858;51.056;3.712;2023-09-19T10:49:35;16.55;;;14.85;;
23370;SDS011;11858;51.056;3.712;2023-09-19T10:52:00;15.95;;;14.82;;
23370;SDS011;11858;51.056;3.712;2023-09-19T10:54:29;15.95;;;14.95;;
23370;SDS011;11858;51.056;3.712;2023-09-19T10:56:59;15.25;;;14.25;;
23370;SDS011;11858;51.056;3.712;2023-09-19T10:59:25;16.30;;;15.30;;
23370;SDS011;11858;51.056;3.712;2023-09-19T11:01:59;17.27;;;15.60;;
23370;SDS011;11858;51.056;3.712;2023-09-19T11:04:40;16.35;;;14.88;;
23370;SDS011;11858;51.056;3.712;2023-09-19T11:07:06;15.23;;;14.02;;
23370;SDS011;11858;51.056;3.712;2023-09-19T11:12:11;14.20;;;13.40;;
23370;SDS011;11858;51.056;3.712;2023-09-19T11:14:41;15.35;;;14.43;;
23370;SDS011;11858;51.056;3.712;2023-09-19T11:30:43;16.23;;;14.70;;
23370;SDS011;11858;51.056;3.712;2023-09-19T11:33:26;14.73;;;13.65;;
23370;SDS011;11858;51.056;3.712;2023-09-19T11:38:57;20.90;;;15.57;;
23370;SDS011;11858;51.056;3.712;2023-09-19T11:46:25;14.68;;;13.68;;
23370;SDS011;11858;51.056;3.712;2023-09-19T11:48:53;16.08;;;14.50;;
23370;SDS011;11858;51.056;3.712;2023-09-19T11:51:22;15.15;;;13.85;;
23370;SDS011;11858;51.056;3.712;2023-09-19T11:53:55;14.30;;;13.25;;
23370;SDS011;11858;51.056;3.712;2023-09-19T11:56:25;15.90;;;14.80;;
23370;SDS011;11858;51.056;3.712;2023-09-19T11:58:57;16.27;;;15.07;;
23370;SDS011;11858;51.056;3.712;2023-09-19T12:01:31;17.02;;;15.38;;
23370;SDS011;11858;51.056;3.712;2023-09-19T12:03:59;17.42;;;16.08;;
23370;SDS011;11858;51.056;3.712;2023-09-19T12:06:27;17.00;;;15.80;;
23370;SDS011;11858;51.056;3.712;2023-09-19T12:08:54;16.55;;;15.35;;
23370;SDS011;11858;51.056;3.712;2023-09-19T12:11:24;15.38;;;14.38;;
23370;SDS011;11858;51.056;3.712;2023-09-19T12:13:53;15.95;;;14.85;;
23370;SDS011;11858;51.056;3.712;2023-09-19T12:16:23;14.98;;;14.07;;
23370;SDS011;11858;51.056;3.712;2023-09-19T12:18:50;14.65;;;13.75;;
23370;SDS011;11858;51.056;3.712;2023-09-19T12:24:11;15.98;;;14.90;;
23370;SDS011;11858;51.056;3.712;2023-09-19T12:26:42;15.30;;;14.40;;
23370;SDS011;11858;51.056;3.712;2023-09-19T12:29:14;14.35;;;13.48;;
23370;SDS011;11858;51.056;3.712;2023-09-19T12:34:19;16.30;;;15.00;;
23370;SDS011;11858;51.056;3.712;2023-09-19T12:37:11;15.07;;;14.18;;
23370;SDS011;11858;51.056;3.712;2023-09-19T12:39:41;14.95;;;13.95;;
23370;SDS011;11858;51.056;3.712;2023-09-19T12:42:13;49.40;;;18.40;;
23370;SDS011;11858;51.056;3.712;2023-09-19T12:44:46;15.63;;;14.27;;
23370;SDS011;11858;51.056;3.712;2023-09-19T12:47:15;14.95;;;13.90;;
23370;SDS011;11858;51.056;3.712;2023-09-19T12:52:37;15.85;;;14.50;;
23370;SDS011;11858;51.056;3.712;2023-09-19T12:55:18;16.25;;;14.75;;
23370;SDS011;11858;51.056;3.712;2023-09-19T13:00:36;14.45;;;13.45;;
23370;SDS011;11858;51.056;3.712;2023-09-19T13:03:50;13.48;;;12.77;;
23370;SDS011;11858;51.056;3.712;2023-09-19T13:06:00;14.93;;;13.57;;
23370;SDS011;11858;51.056;3.712;2023-09-19T13:08:34;14.20;;;13.32;;
23370;SDS011;11858;51.056;3.712;2023-09-19T13:16:09;14.23;;;13.20;;
23370;SDS011;11858;51.056;3.712;2023-09-19T13:18:46;15.43;;;13.90;;
23370;SDS011;11858;51.056;3.712;2023-09-19T13:21:13;15.13;;;14.13;;
23370;SDS011;11858;51.056;3.712;2023-09-19T13:23:52;15.85;;;14.32;;
23370;SDS011;11858;51.056;3.712;2023-09-19T13:26:21;14.77;;;13.88;;
23370;SDS011;11858;51.056;3.712;2023-09-19T13:28:47;14.73;;;13.90;;
23370;SDS011;11858;51.056;3.712;2023-09-19T13:31:16;16.08;;;14.85;;
23370;SDS011;11858;51.056;3.712;2023-09-19T13:33:43;16.02;;;14.55;;
23370;SDS011;11858;51.056;3.712;2023-09-19T13:36:10;14.23;;;13.20;;
23370;SDS011;11858;51.056;3.712;2023-09-19T13:38:38;15.43;;;14.18;;
23370;SDS011;11858;51.056;3.712;2023-09-19T13:41:07;14.07;;;13.18;;
23370;SDS011;11858;51.056;3.712;2023-09-19T13:43:35;13.30;;;12.60;;
23370;SDS011;11858;51.056;3.712;2023-09-19T13:46:01;13.80;;;12.90;;
23370;SDS011;11858;51.056;3.712;2023-09-19T13:48:27;15.45;;;12.95;;
23370;SDS011;11858;51.056;3.712;2023-09-19T13:50:55;13.98;;;12.57;;
23370;SDS011;11858;51.056;3.712;2023-09-19T13:53:21;14.35;;;12.95;;
23370;SDS011;11858;51.056;3.712;2023-09-19T13:55:47;13.77;;;12.52;;
23370;SDS011;11858;51.056;3.712;2023-09-19T13:58:16;17.25;;;14.35;;
23370;SDS011;11858;51.056;3.712;2023-09-19T14:00:41;14.43;;;13.43;;
23370;SDS011;11858;51.056;3.712;2023-09-19T14:03:08;15.73;;;14.48;;
23370;SDS011;11858;51.056;3.712;2023-09-19T14:05:35;17.25;;;16.00;;
23370;SDS011;11858;51.056;3.712;2023-09-19T14:08:02;17.05;;;15.90;;
23370;SDS011;11858;51.056;3.712;2023-09-19T14:10:28;16.83;;;15.82;;
23370;SDS011;11858;51.056;3.712;2023-09-19T14:12:56;17.40;;;16.30;;
23370;SDS011;11858;51.056;3.712;2023-09-19T14:15:24;17.73;;;16.40;;
23370;SDS011;11858;51.056;3.712;2023-09-19T14:17:57;18.77;;;17.02;;
23370;SDS011;11858;51.056;3.712;2023-09-19T14:20:25;19.15;;;17.30;;
23370;SDS011;11858;51.056;3.712;2023-09-19T14:22:52;17.63;;;16.05;;
23370;SDS011;11858;51.056;3.712;2023-09-19T14:25:18;16.98;;;15.52;;
23370;SDS011;11858;51.056;3.712;2023-09-19T14:27:44;17.40;;;16.00;;
23370;SDS011;11858;51.056;3.712;2023-09-19T14:30:10;16.75;;;15.27;;
23370;SDS011;11858;51.056;3.712;2023-09-19T14:32:36;15.40;;;14.40;;
23370;SDS011;11858;51.056;3.712;2023-09-19T14:35:02;15.57;;;14.68;;
23370;SDS011;11858;51.056;3.712;2023-09-19T14:37:28;18.20;;;16.48;;
23370;SDS011;11858;51.056;3.712;2023-09-19T14:39:53;16.98;;;15.32;;
23370;SDS011;11858;51.056;3.712;2023-09-19T14:42:19;18.00;;;15.63;;
23370;SDS011;11858;51.056;3.712;2023-09-19T14:44:45;16.17;;;14.85;;
23370;SDS011;11858;51.056;3.712;2023-09-19T14:47:13;16.70;;;15.15;;
23370;SDS011;11858;51.056;3.712;2023-09-19T14:49:39;16.10;;;15.00;;
23370;SDS011;11858;51.056;3.712;2023-09-19T14:52:08;16.05;;;14.43;;
23370;SDS011;11858;51.056;3.712;2023-09-19T14:54:35;16.70;;;15.10;;
23370;SDS011;11858;51.056;3.712;2023-09-19T14:57:03;15.15;;;14.15;;
23370;SDS011;11858;51.056;3.712;2023-09-19T14:59:32;15.98;;;14.65;;
23370;SDS011;11858;51.056;3.712;2023-09-19T15:02:02;13.50;;;12.80;;
23370;SDS011;11858;51.056;3.712;2023-09-19T15:04:28;15.00;;;13.77;;
23370;SDS011;11858;51.056;3.712;2023-09-19T15:06:55;14.32;;;13.43;;
23370;SDS011;11858;51.056;3.712;2023-09-19T15:09:22;15.25;;;14.15;;
23370;SDS011;11858;51.056;3.712;2023-09-19T15:11:54;14.63;;;13.82;;
23370;SDS011;11858;51.056;3.712;2023-09-19T15:14:21;16.58;;;15.15;;
23370;SDS011;11858;51.056;3.712;2023-09-19T15:16:50;14.45;;;13.40;;
23370;SDS011;11858;51.056;3.712;2023-09-19T15:19:15;16.42;;;14.73;;
23370;SDS011;11858;51.056;3.712;2023-09-19T15:21:42;19.60;;;13.27;;
23370;SDS011;11858;51.056;3.712;2023-09-19T15:24:08;14.27;;;13.02;;
23370;SDS011;11858;51.056;3.712;2023-09-19T15:26:37;13.23;;;12.40;;
23370;SDS011;11858;51.056;3.712;2023-09-19T15:31:34;13.68;;;12.75;;
23370;SDS011;11858;51.056;3.712;2023-09-19T15:34:03;13.80;;;12.90;;
23370;SDS011;11858;51.056;3.712;2023-09-19T15:36:30;14.38;;;12.88;;
23370;SDS011;11858;51.056;3.712;2023-09-19T15:39:03;12.93;;;12.10;;
23370;SDS011;11858;51.056;3.712;2023-09-19T15:43:58;13.15;;;11.90;;
23370;SDS011;11858;51.056;3.712;2023-09-19T15:46:26;12.43;;;11.45;;
23370;SDS011;11858;51.056;3.712;2023-09-19T15:48:55;13.27;;;11.88;;
23370;SDS011;11858;51.056;3.712;2023-09-19T15:51:22;11.70;;;10.73;;
23370;SDS011;11858;51.056;3.712;2023-09-19T15:53:48;10.70;;;9.93;;
23370;SDS011;11858;51.056;3.712;2023-09-19T15:56:19;11.88;;;10.82;;